sensor_id;sensor_type;location;lat;lon;timestamp;pressure;altitude;pressure_sealevel;temperature;humidity
35045;BME280;21231;48.394;34.964;2022-09-16T00:01:33;54890.28;;;-146.92;100.00
35045;BME280;21231;48.394;34.964;2022-09-16T00:04:19;54890.28;;;-146.92;100.00
35045;BME280;21231;48.394;34.964;2022-09-16T00:07:06;54890.28;;;-146.92;100.00
35045;BME280;21231;48.394;34.964;2022-09-16T00:09:52;54890.28;;;-146.92;100.00
35045;BME280;21231;48.394;34.964;2022-09-16T00:12:40;54890.28;;;-146.92;100.00
35045;BME280;21231;48.394;34.964;2022-09-16T00:15:26;54890.28;;;-146.92;100.00
35045;BME280;21231;48.394;34.964;2022-09-16T00:18:13;54890.28;;;-146.92;100.00
35045;BME280;21231;48.394;34.964;2022-09-16T00:21:00;54890.28;;;-146.92;100.00
35045;BME280;21231;48.394;34.964;2022-09-16T00:23:46;54890.28;;;-146.92;100.00
35045;BME280;21231;48.394;34.964;2022-09-16T00:26:32;54890.28;;;-146.92;100.00
35045;BME280;21231;48.394;34.964;2022-09-16T00:29:19;54890.28;;;-146.92;100.00
35045;BME280;21231;48.394;34.964;2022-09-16T00:32:05;54890.28;;;-146.92;100.00
35045;BME280;21231;48.394;34.964;2022-09-16T00:34:53;54890.28;;;-146.92;100.00
35045;BME280;21231;48.394;34.964;2022-09-16T00:37:39;54890.28;;;-146.92;100.00
35045;BME280;21231;48.394;34.964;2022-09-16T00:40:25;54890.28;;;-146.92;100.00
35045;BME280;21231;48.394;34.964;2022-09-16T00:43:16;54890.28;;;-146.92;100.00
35045;BME280;21231;48.394;34.964;2022-09-16T00:46:04;54890.28;;;-146.92;100.00
35045;BME280;21231;48.394;34.964;2022-09-16T00:48:50;54890.28;;;-146.92;100.00
35045;BME280;21231;48.394;34.964;2022-09-16T00:51:37;54890.28;;;-146.92;100.00
35045;BME280;21231;48.394;34.964;2022-09-16T00:54:24;54890.28;;;-146.92;100.00
35045;BME280;21231;48.394;34.964;2022-09-16T00:57:12;54890.28;;;-146.92;100.00
35045;BME280;21231;48.394;34.964;2022-09-16T01:00:00;54890.28;;;-146.92;100.00
35045;BME280;21231;48.394;34.964;2022-09-16T01:02:47;54890.28;;;-146.92;100.00
35045;BME280;21231;48.394;34.964;2022-09-16T01:05:36;54890.28;;;-146.92;100.00
35045;BME280;21231;48.394;34.964;2022-09-16T01:08:23;54890.28;;;-146.92;100.00
35045;BME280;21231;48.394;34.964;2022-09-16T01:11:10;54890.28;;;-146.92;100.00
35045;BME280;21231;48.394;34.964;2022-09-16T01:14:03;54890.28;;;-146.92;100.00
35045;BME280;21231;48.394;34.964;2022-09-16T01:17:20;54890.28;;;-146.92;100.00
35045;BME280;21231;48.394;34.964;2022-09-16T01:37:02;54890.28;;;-146.92;100.00
35045;BME280;21231;48.394;34.964;2022-09-16T01:46:15;54890.28;;;-146.92;100.00
35045;BME280;21231;48.394;34.964;2022-09-16T01:49:21;54890.28;;;-146.92;100.00
35045;BME280;21231;48.394;34.964;2022-09-16T01:58:33;54890.28;;;-146.92;100.00
35045;BME280;21231;48.394;34.964;2022-09-16T02:01:25;54890.28;;;-146.92;100.00
35045;BME280;21231;48.394;34.964;2022-09-16T02:04:28;54890.28;;;-146.92;100.00
35045;BME280;21231;48.394;34.964;2022-09-16T02:07:16;54890.28;;;-146.92;100.00
35045;BME280;21231;48.394;34.964;2022-09-16T02:10:31;54890.28;;;-146.92;100.00
35045;BME280;21231;48.394;34.964;2022-09-16T02:13:23;54890.28;;;-146.92;100.00
35045;BME280;21231;48.394;34.964;2022-09-16T02:16:20;54890.28;;;-146.92;100.00
35045;BME280;21231;48.394;34.964;2022-09-16T02:19:11;54890.28;;;-146.92;100.00
35045;BME280;21231;48.394;34.964;2022-09-16T02:22:03;54890.28;;;-146.92;100.00
35045;BME280;21231;48.394;34.964;2022-09-16T02:24:51;54890.28;;;-146.92;100.00
35045;BME280;21231;48.394;34.964;2022-09-16T02:27:39;54890.28;;;-146.92;100.00
35045;BME280;21231;48.394;34.964;2022-09-16T02:30:28;54890.28;;;-146.92;100.00
35045;BME280;21231;48.394;34.964;2022-09-16T02:33:15;54890.28;;;-146.92;100.00
35045;BME280;21231;48.394;34.964;2022-09-16T02:36:04;54890.28;;;-146.92;100.00
35045;BME280;21231;48.394;34.964;2022-09-16T02:38:59;54890.28;;;-146.92;100.00
35045;BME280;21231;48.394;34.964;2022-09-16T02:41:47;54890.28;;;-146.92;100.00
35045;BME280;21231;48.394;34.964;2022-09-16T02:44:34;54890.28;;;-146.92;100.00
35045;BME280;21231;48.394;34.964;2022-09-16T02:47:28;54890.28;;;-146.92;100.00
35045;BME280;21231;48.394;34.964;2022-09-16T02:50:24;54890.28;;;-146.92;100.00
35045;BME280;21231;48.394;34.964;2022-09-16T02:56:30;54890.28;;;-146.92;100.00
35045;BME280;21231;48.394;34.964;2022-09-16T02:59:17;54890.28;;;-146.92;100.00
35045;BME280;21231;48.394;34.964;2022-09-16T03:02:03;54890.28;;;-146.92;100.00
35045;BME280;21231;48.394;34.964;2022-09-16T03:04:49;54890.28;;;-146.92;100.00
35045;BME280;21231;48.394;34.964;2022-09-16T03:07:36;54890.28;;;-146.92;100.00
35045;BME280;21231;48.394;34.964;2022-09-16T03:10:27;54890.28;;;-146.92;100.00
35045;BME280;21231;48.394;34.964;2022-09-16T03:13:52;54890.28;;;-146.92;100.00
35045;BME280;21231;48.394;34.964;2022-09-16T03:29:42;54890.28;;;-146.92;100.00
35045;BME280;21231;48.394;34.964;2022-09-16T03:32:34;54890.28;;;-146.92;100.00
35045;BME280;21231;48.394;34.964;2022-09-16T03:38:15;54890.28;;;-146.92;100.00
35045;BME280;21231;48.394;34.964;2022-09-16T03:41:05;54890.28;;;-146.92;100.00
35045;BME280;21231;48.394;34.964;2022-09-16T03:43:53;54890.28;;;-146.92;100.00
35045;BME280;21231;48.394;34.964;2022-09-16T03:46:44;54890.28;;;-146.92;100.00
35045;BME280;21231;48.394;34.964;2022-09-16T03:49:30;54890.28;;;-146.92;100.00
35045;BME280;21231;48.394;34.964;2022-09-16T03:52:19;54890.28;;;-146.92;100.00
35045;BME280;21231;48.394;34.964;2022-09-16T03:55:06;54890.28;;;-146.92;100.00
35045;BME280;21231;48.394;34.964;2022-09-16T03:57:53;54890.28;;;-146.92;100.00
35045;BME280;21231;48.394;34.964;2022-09-16T04:00:39;54890.28;;;-146.92;100.00
35045;BME280;21231;48.394;34.964;2022-09-16T04:03:26;54890.28;;;-146.92;100.00
35045;BME280;21231;48.394;34.964;2022-09-16T04:06:17;54890.28;;;-146.92;100.00
35045;BME280;21231;48.394;34.964;2022-09-16T04:09:04;54890.28;;;-146.92;100.00
35045;BME280;21231;48.394;34.964;2022-09-16T04:11:53;54890.28;;;-146.92;100.00
35045;BME280;21231;48.394;34.964;2022-09-16T04:14:40;54890.28;;;-146.92;100.00
35045;BME280;21231;48.394;34.964;2022-09-16T04:17:30;54890.28;;;-146.92;100.00
35045;BME280;21231;48.394;34.964;2022-09-16T04:20:17;54890.28;;;-146.92;100.00
35045;BME280;21231;48.394;34.964;2022-09-16T04:23:03;54890.28;;;-146.92;100.00
35045;BME280;21231;48.394;34.964;2022-09-16T04:26:00;54890.28;;;-146.92;100.00
35045;BME280;21231;48.394;34.964;2022-09-16T04:28:50;54890.28;;;-146.92;100.00
35045;BME280;21231;48.394;34.964;2022-09-16T04:31:36;54890.28;;;-146.92;100.00
35045;BME280;21231;48.394;34.964;2022-09-16T04:34:23;54890.28;;;-146.92;100.00
35045;BME280;21231;48.394;34.964;2022-09-16T04:37:09;54890.28;;;-146.92;100.00
35045;BME280;21231;48.394;34.964;2022-09-16T04:39:55;54890.28;;;-146.92;100.00
35045;BME280;21231;48.394;34.964;2022-09-16T04:42:50;54890.28;;;-146.92;100.00
35045;BME280;21231;48.394;34.964;2022-09-16T04:45:37;54890.28;;;-146.92;100.00
35045;BME280;21231;48.394;34.964;2022-09-16T04:48:23;54890.28;;;-146.92;100.00
35045;BME280;21231;48.394;34.964;2022-09-16T04:51:11;54890.28;;;-146.92;100.00
35045;BME280;21231;48.394;34.964;2022-09-16T04:53:58;54890.28;;;-146.92;100.00
35045;BME280;21231;48.394;34.964;2022-09-16T04:56:45;54890.28;;;-146.92;100.00
35045;BME280;21231;48.394;34.964;2022-09-16T04:59:32;54890.28;;;-146.92;100.00
35045;BME280;21231;48.394;34.964;2022-09-16T05:02:19;54890.28;;;-146.92;100.00
35045;BME280;21231;48.394;34.964;2022-09-16T05:05:08;54890.28;;;-146.92;100.00
35045;BME280;21231;48.394;34.964;2022-09-16T05:07:54;54890.28;;;-146.92;100.00
35045;BME280;21231;48.394;34.964;2022-09-16T05:10:41;54890.28;;;-146.92;100.00
35045;BME280;21231;48.394;34.964;2022-09-16T05:13:27;54890.28;;;-146.92;100.00
35045;BME280;21231;48.394;34.964;2022-09-16T05:16:18;54890.28;;;-146.92;100.00
35045;BME280;21231;48.394;34.964;2022-09-16T05:19:05;54890.28;;;-146.92;100.00
35045;BME280;21231;48.394;34.964;2022-09-16T05:21:51;54890.28;;;-146.92;100.00
35045;BME280;21231;48.394;34.964;2022-09-16T05:24:38;54890.28;;;-146.92;100.00
35045;BME280;21231;48.394;34.964;2022-09-16T05:27:24;54890.28;;;-146.92;100.00
35045;BME280;21231;48.394;34.964;2022-09-16T05:30:13;54890.28;;;-146.92;100.00
35045;BME280;21231;48.394;34.964;2022-09-16T05:33:02;54890.28;;;-146.92;100.00
35045;BME280;21231;48.394;34.964;2022-09-16T05:35:48;54890.28;;;-146.92;100.00
35045;BME280;21231;48.394;34.964;2022-09-16T05:38:34;54890.28;;;-146.92;100.00
35045;BME280;21231;48.394;34.964;2022-09-16T05:41:20;54890.28;;;-146.92;100.00
35045;BME280;21231;48.394;34.964;2022-09-16T05:44:06;54890.28;;;-146.92;100.00
35045;BME280;21231;48.394;34.964;2022-09-16T05:46:54;54890.28;;;-146.92;100.00
35045;BME280;21231;48.394;34.964;2022-09-16T05:49:40;54890.28;;;-146.92;100.00
35045;BME280;21231;48.394;34.964;2022-09-16T05:52:26;54890.28;;;-146.92;100.00
35045;BME280;21231;48.394;34.964;2022-09-16T05:55:12;54890.28;;;-146.92;100.00
35045;BME280;21231;48.394;34.964;2022-09-16T05:57:58;54890.28;;;-146.92;100.00
35045;BME280;21231;48.394;34.964;2022-09-16T06:00:44;54890.28;;;-146.92;100.00
35045;BME280;21231;48.394;34.964;2022-09-16T06:03:32;54890.28;;;-146.92;100.00
35045;BME280;21231;48.394;34.964;2022-09-16T06:06:29;54890.28;;;-146.92;100.00
35045;BME280;21231;48.394;34.964;2022-09-16T06:09:20;54890.28;;;-146.92;100.00
35045;BME280;21231;48.394;34.964;2022-09-16T06:12:06;54890.28;;;-146.92;100.00
35045;BME280;21231;48.394;34.964;2022-09-16T06:14:52;54890.28;;;-146.92;100.00
35045;BME280;21231;48.394;34.964;2022-09-16T06:17:38;54890.28;;;-146.92;100.00
35045;BME280;21231;48.394;34.964;2022-09-16T06:20:24;54890.28;;;-146.92;100.00
35045;BME280;21231;48.394;34.964;2022-09-16T06:23:10;54890.28;;;-146.92;100.00
35045;BME280;21231;48.394;34.964;2022-09-16T06:26:08;54890.28;;;-146.92;100.00
35045;BME280;21231;48.394;34.964;2022-09-16T06:28:55;54890.28;;;-146.92;100.00
35045;BME280;21231;48.394;34.964;2022-09-16T06:31:41;54890.28;;;-146.92;100.00
35045;BME280;21231;48.394;34.964;2022-09-16T06:34:27;54890.28;;;-146.92;100.00
35045;BME280;21231;48.394;34.964;2022-09-16T06:37:13;54890.28;;;-146.92;100.00
35045;BME280;21231;48.394;34.964;2022-09-16T06:40:00;54890.28;;;-146.92;100.00
35045;BME280;21231;48.394;34.964;2022-09-16T06:42:47;54890.28;;;-146.92;100.00
35045;BME280;21231;48.394;34.964;2022-09-16T06:45:33;54890.28;;;-146.92;100.00
35045;BME280;21231;48.394;34.964;2022-09-16T06:48:19;54890.28;;;-146.92;100.00
35045;BME280;21231;48.394;34.964;2022-09-16T06:51:10;54890.28;;;-146.92;100.00
35045;BME280;21231;48.394;34.964;2022-09-16T06:54:05;54890.28;;;-146.92;100.00
35045;BME280;21231;48.394;34.964;2022-09-16T06:56:54;54890.28;;;-146.92;100.00
35045;BME280;21231;48.394;34.964;2022-09-16T06:59:42;54890.28;;;-146.92;100.00
35045;BME280;21231;48.394;34.964;2022-09-16T07:02:28;54890.28;;;-146.92;100.00
35045;BME280;21231;48.394;34.964;2022-09-16T07:05:21;54890.28;;;-146.92;100.00
35045;BME280;21231;48.394;34.964;2022-09-16T07:08:08;54890.28;;;-146.92;100.00
35045;BME280;21231;48.394;34.964;2022-09-16T07:11:00;54890.28;;;-146.92;100.00
35045;BME280;21231;48.394;34.964;2022-09-16T07:13:53;54890.28;;;-146.92;100.00
35045;BME280;21231;48.394;34.964;2022-09-16T07:16:39;54890.28;;;-146.92;100.00
35045;BME280;21231;48.394;34.964;2022-09-16T07:19:26;54890.28;;;-146.92;100.00
35045;BME280;21231;48.394;34.964;2022-09-16T07:22:13;54890.28;;;-146.92;100.00
35045;BME280;21231;48.394;34.964;2022-09-16T07:24:59;54890.28;;;-146.92;100.00
35045;BME280;21231;48.394;34.964;2022-09-16T07:27:45;54890.28;;;-146.92;100.00
35045;BME280;21231;48.394;34.964;2022-09-16T07:30:31;54890.28;;;-146.92;100.00
35045;BME280;21231;48.394;34.964;2022-09-16T07:33:20;54890.28;;;-146.92;100.00
35045;BME280;21231;48.394;34.964;2022-09-16T07:36:08;54890.28;;;-146.92;100.00
35045;BME280;21231;48.394;34.964;2022-09-16T07:38:56;54890.28;;;-146.92;100.00
35045;BME280;21231;48.394;34.964;2022-09-16T07:41:45;54890.28;;;-146.92;100.00
35045;BME280;21231;48.394;34.964;2022-09-16T07:44:34;54890.28;;;-146.92;100.00
35045;BME280;21231;48.394;34.964;2022-09-16T07:47:20;54890.28;;;-146.92;100.00
35045;BME280;21231;48.394;34.964;2022-09-16T07:50:07;54890.28;;;-146.92;100.00
35045;BME280;21231;48.394;34.964;2022-09-16T07:52:54;54890.28;;;-146.92;100.00
35045;BME280;21231;48.394;34.964;2022-09-16T07:55:40;54890.28;;;-146.92;100.00
35045;BME280;21231;48.394;34.964;2022-09-16T07:58:26;54890.28;;;-146.92;100.00
35045;BME280;21231;48.394;34.964;2022-09-16T08:01:14;54890.28;;;-146.92;100.00
35045;BME280;21231;48.394;34.964;2022-09-16T08:04:01;54890.28;;;-146.92;100.00
35045;BME280;21231;48.394;34.964;2022-09-16T08:06:47;54890.28;;;-146.92;100.00
35045;BME280;21231;48.394;34.964;2022-09-16T08:09:33;54890.28;;;-146.92;100.00
35045;BME280;21231;48.394;34.964;2022-09-16T08:12:26;54890.28;;;-146.92;100.00
35045;BME280;21231;48.394;34.964;2022-09-16T08:15:17;54890.28;;;-146.92;100.00
35045;BME280;21231;48.394;34.964;2022-09-16T08:18:23;54890.28;;;-146.92;100.00
35045;BME280;21231;48.394;34.964;2022-09-16T08:21:13;54890.28;;;-146.92;100.00
35045;BME280;21231;48.394;34.964;2022-09-16T08:23:59;54890.28;;;-146.92;100.00
35045;BME280;21231;48.394;34.964;2022-09-16T08:26:45;54890.28;;;-146.92;100.00
35045;BME280;21231;48.394;34.964;2022-09-16T08:29:31;54890.28;;;-146.92;100.00
35045;BME280;21231;48.394;34.964;2022-09-16T08:32:18;54890.28;;;-146.92;100.00
35045;BME280;21231;48.394;34.964;2022-09-16T08:35:04;54890.28;;;-146.92;100.00
35045;BME280;21231;48.394;34.964;2022-09-16T08:37:55;54890.28;;;-146.92;100.00
35045;BME280;21231;48.394;34.964;2022-09-16T08:40:44;54890.28;;;-146.92;100.00
35045;BME280;21231;48.394;34.964;2022-09-16T08:43:42;54890.28;;;-146.92;100.00
35045;BME280;21231;48.394;34.964;2022-09-16T08:46:37;54890.28;;;-146.92;100.00
35045;BME280;21231;48.394;34.964;2022-09-16T08:52:34;54890.28;;;-146.92;100.00
35045;BME280;21231;48.394;34.964;2022-09-16T08:55:34;54890.28;;;-146.92;100.00
35045;BME280;21231;48.394;34.964;2022-09-16T08:58:25;54890.28;;;-146.92;100.00
35045;BME280;21231;48.394;34.964;2022-09-16T09:04:11;54890.28;;;-146.92;100.00
35045;BME280;21231;48.394;34.964;2022-09-16T09:07:20;54890.28;;;-146.92;100.00
35045;BME280;21231;48.394;34.964;2022-09-16T09:10:34;54890.28;;;-146.92;100.00
35045;BME280;21231;48.394;34.964;2022-09-16T09:13:38;54890.28;;;-146.92;100.00
35045;BME280;21231;48.394;34.964;2022-09-16T09:19:52;54890.28;;;-146.92;100.00
35045;BME280;21231;48.394;34.964;2022-09-16T09:23:13;54890.28;;;-146.92;100.00
35045;BME280;21231;48.394;34.964;2022-09-16T09:26:21;54890.28;;;-146.92;100.00
35045;BME280;21231;48.394;34.964;2022-09-16T09:36:05;54890.28;;;-146.92;100.00
35045;BME280;21231;48.394;34.964;2022-09-16T09:39:50;54890.28;;;-146.92;100.00
35045;BME280;21231;48.394;34.964;2022-09-16T09:42:31;54890.28;;;-146.92;100.00
35045;BME280;21231;48.394;34.964;2022-09-16T09:45:32;54890.28;;;-146.92;100.00
35045;BME280;21231;48.394;34.964;2022-09-16T09:51:53;54890.28;;;-146.92;100.00
35045;BME280;21231;48.394;34.964;2022-09-16T09:54:48;54890.28;;;-146.92;100.00
35045;BME280;21231;48.394;34.964;2022-09-16T09:57:39;54890.28;;;-146.92;100.00
35045;BME280;21231;48.394;34.964;2022-09-16T10:00:31;54890.28;;;-146.92;100.00
35045;BME280;21231;48.394;34.964;2022-09-16T10:10:26;54890.28;;;-146.92;100.00
35045;BME280;21231;48.394;34.964;2022-09-16T10:13:16;54890.28;;;-146.92;100.00
35045;BME280;21231;48.394;34.964;2022-09-16T10:16:18;54890.28;;;-146.92;100.00
35045;BME280;21231;48.394;34.964;2022-09-16T10:19:21;54890.28;;;-146.92;100.00
35045;BME280;21231;48.394;34.964;2022-09-16T10:22:10;54890.28;;;-146.92;100.00
35045;BME280;21231;48.394;34.964;2022-09-16T10:25:00;54890.28;;;-146.92;100.00
35045;BME280;21231;48.394;34.964;2022-09-16T10:27:55;54890.28;;;-146.92;100.00
35045;BME280;21231;48.394;34.964;2022-09-16T10:30:46;54890.28;;;-146.92;100.00
35045;BME280;21231;48.394;34.964;2022-09-16T10:33:33;54890.28;;;-146.92;100.00
35045;BME280;21231;48.394;34.964;2022-09-16T10:36:22;54890.28;;;-146.92;100.00
35045;BME280;21231;48.394;34.964;2022-09-16T10:39:24;54890.28;;;-146.92;100.00
35045;BME280;21231;48.394;34.964;2022-09-16T10:42:22;54890.28;;;-146.92;100.00
35045;BME280;21231;48.394;34.964;2022-09-16T10:45:16;54890.28;;;-146.92;100.00
35045;BME280;21231;48.394;34.964;2022-09-16T10:48:15;54890.28;;;-146.92;100.00
35045;BME280;21231;48.394;34.964;2022-09-16T10:51:05;54890.28;;;-146.92;100.00
35045;BME280;21231;48.394;34.964;2022-09-16T10:54:03;54890.28;;;-146.92;100.00
35045;BME280;21231;48.394;34.964;2022-09-16T10:56:50;54890.28;;;-146.92;100.00
35045;BME280;21231;48.394;34.964;2022-09-16T10:59:36;54890.28;;;-146.92;100.00
35045;BME280;21231;48.394;34.964;2022-09-16T11:05:28;54890.28;;;-146.92;100.00
35045;BME280;21231;48.394;34.964;2022-09-16T11:15:00;54890.28;;;-146.92;100.00
35045;BME280;21231;48.394;34.964;2022-09-16T11:21:00;54890.28;;;-146.92;100.00
35045;BME280;21231;48.394;34.964;2022-09-16T11:27:20;54890.28;;;-146.92;100.00
35045;BME280;21231;48.394;34.964;2022-09-16T11:30:13;54890.28;;;-146.92;100.00
35045;BME280;21231;48.394;34.964;2022-09-16T11:39:04;54890.28;;;-146.92;100.00
35045;BME280;21231;48.394;34.964;2022-09-16T11:42:09;54890.28;;;-146.92;100.00
35045;BME280;21231;48.394;34.964;2022-09-16T11:54:07;54890.28;;;-146.92;100.00
35045;BME280;21231;48.394;34.964;2022-09-16T11:57:00;54890.28;;;-146.92;100.00
35045;BME280;21231;48.394;34.964;2022-09-16T12:02:56;54890.28;;;-146.92;100.00
35045;BME280;21231;48.394;34.964;2022-09-16T12:05:49;54890.28;;;-146.92;100.00
35045;BME280;21231;48.394;34.964;2022-09-16T12:11:37;54890.28;;;-146.92;100.00
35045;BME280;21231;48.394;34.964;2022-09-16T12:14:35;54890.28;;;-146.92;100.00
35045;BME280;21231;48.394;34.964;2022-09-16T12:17:25;54890.28;;;-146.92;100.00
35045;BME280;21231;48.394;34.964;2022-09-16T12:20:20;54890.28;;;-146.92;100.00
35045;BME280;21231;48.394;34.964;2022-09-16T12:23:17;54890.28;;;-146.92;100.00
35045;BME280;21231;48.394;34.964;2022-09-16T12:26:16;54890.28;;;-146.92;100.00
35045;BME280;21231;48.394;34.964;2022-09-16T12:29:17;54890.28;;;-146.92;100.00
35045;BME280;21231;48.394;34.964;2022-09-16T12:32:20;54890.28;;;-146.92;100.00
35045;BME280;21231;48.394;34.964;2022-09-16T12:35:15;54890.28;;;-146.92;100.00
35045;BME280;21231;48.394;34.964;2022-09-16T12:38:02;54890.28;;;-146.92;100.00
35045;BME280;21231;48.394;34.964;2022-09-16T12:50:42;54890.28;;;-146.92;100.00
35045;BME280;21231;48.394;34.964;2022-09-16T13:02:48;54890.28;;;-146.92;100.00
35045;BME280;21231;48.394;34.964;2022-09-16T13:05:36;54890.28;;;-146.92;100.00
35045;BME280;21231;48.394;34.964;2022-09-16T13:08:31;54890.28;;;-146.92;100.00
35045;BME280;21231;48.394;34.964;2022-09-16T13:11:38;54890.28;;;-146.92;100.00
35045;BME280;21231;48.394;34.964;2022-09-16T13:14:53;54890.28;;;-146.92;100.00
35045;BME280;21231;48.394;34.964;2022-09-16T13:17:40;54890.28;;;-146.92;100.00
35045;BME280;21231;48.394;34.964;2022-09-16T13:20:31;54890.28;;;-146.92;100.00
35045;BME280;21231;48.394;34.964;2022-09-16T13:23:26;54890.28;;;-146.92;100.00
35045;BME280;21231;48.394;34.964;2022-09-16T13:26:17;54890.28;;;-146.92;100.00
35045;BME280;21231;48.394;34.964;2022-09-16T13:32:27;54890.28;;;-146.92;100.00
35045;BME280;21231;48.394;34.964;2022-09-16T13:41:05;54890.28;;;-146.92;100.00
35045;BME280;21231;48.394;34.964;2022-09-16T13:43:55;54890.28;;;-146.92;100.00
35045;BME280;21231;48.394;34.964;2022-09-16T13:46:41;54890.28;;;-146.92;100.00
35045;BME280;21231;48.394;34.964;2022-09-16T13:49:27;54890.28;;;-146.92;100.00
35045;BME280;21231;48.394;34.964;2022-09-16T20:19:57;99217.81;;;16.95;100.00
35045;BME280;21231;48.394;34.964;2022-09-16T20:22:44;99218.69;;;16.97;100.00
35045;BME280;21231;48.394;34.964;2022-09-16T20:25:31;99210.88;;;16.94;100.00
35045;BME280;21231;48.394;34.964;2022-09-16T20:28:18;99215.13;;;16.90;100.00
35045;BME280;21231;48.394;34.964;2022-09-16T20:31:09;99221.06;;;16.80;100.00
35045;BME280;21231;48.394;34.964;2022-09-16T20:33:57;99221.06;;;16.80;100.00
35045;BME280;21231;48.394;34.964;2022-09-16T20:36:44;99228.13;;;16.88;100.00
35045;BME280;21231;48.394;34.964;2022-09-16T20:39:31;99216.91;;;16.93;100.00
35045;BME280;21231;48.394;34.964;2022-09-16T20:42:18;99212.59;;;16.93;100.00
35045;BME280;21231;48.394;34.964;2022-09-16T20:45:04;99216.03;;;16.92;100.00
35045;BME280;21231;48.394;34.964;2022-09-16T20:47:56;99213.41;;;16.90;100.00
35045;BME280;21231;48.394;34.964;2022-09-16T20:50:43;99207.31;;;16.87;100.00
35045;BME280;21231;48.394;34.964;2022-09-16T20:53:37;99210.66;;;16.80;100.00
35045;BME280;21231;48.394;34.964;2022-09-16T20:56:54;99207.09;;;16.73;100.00
35045;BME280;21231;48.394;34.964;2022-09-16T20:59:40;99199.13;;;16.62;100.00
35045;BME280;21231;48.394;34.964;2022-09-16T21:02:27;99201.84;;;16.71;100.00
35045;BME280;21231;48.394;34.964;2022-09-16T21:05:13;99200.09;;;16.69;100.00
35045;BME280;21231;48.394;34.964;2022-09-16T21:07:59;99207.91;;;16.70;100.00
35045;BME280;21231;48.394;34.964;2022-09-16T21:10:45;99199.78;;;16.53;100.00
35045;BME280;21231;48.394;34.964;2022-09-16T21:13:32;99206.50;;;16.38;100.00
35045;BME280;21231;48.394;34.964;2022-09-16T21:16:19;99222.00;;;16.34;100.00
35045;BME280;21231;48.394;34.964;2022-09-16T21:19:08;99219.19;;;16.21;100.00
35045;BME280;21231;48.394;34.964;2022-09-16T21:21:54;99220.69;;;16.07;100.00
35045;BME280;21231;48.394;34.964;2022-09-16T21:24:41;99218.88;;;16.03;100.00
35045;BME280;21231;48.394;34.964;2022-09-16T21:27:30;99221.47;;;16.03;100.00
35045;BME280;21231;48.394;34.964;2022-09-16T21:30:16;99224.69;;;15.89;100.00
35045;BME280;21231;48.394;34.964;2022-09-16T21:33:04;99226.44;;;15.90;100.00
35045;BME280;21231;48.394;34.964;2022-09-16T21:35:51;99228.06;;;15.85;100.00
35045;BME280;21231;48.394;34.964;2022-09-16T21:38:38;99228.00;;;15.82;100.00
35045;BME280;21231;48.394;34.964;2022-09-16T21:41:25;99239.38;;;15.87;100.00
35045;BME280;21231;48.394;34.964;2022-09-16T21:44:13;99235.88;;;15.85;100.00
35045;BME280;21231;48.394;34.964;2022-09-16T21:46:59;99241.78;;;15.76;100.00
35045;BME280;21231;48.394;34.964;2022-09-16T21:49:46;99250.38;;;15.75;100.00
35045;BME280;21231;48.394;34.964;2022-09-16T21:52:34;99232.34;;;15.81;100.00
35045;BME280;21231;48.394;34.964;2022-09-16T21:55:20;99243.81;;;15.93;100.00
35045;BME280;21231;48.394;34.964;2022-09-16T21:58:07;99243.94;;;15.99;100.00
35045;BME280;21231;48.394;34.964;2022-09-16T22:01:17;99237.75;;;15.92;100.00
35045;BME280;21231;48.394;34.964;2022-09-16T22:04:05;99235.84;;;15.83;100.00
35045;BME280;21231;48.394;34.964;2022-09-16T22:06:52;99240.59;;;15.62;100.00
35045;BME280;21231;48.394;34.964;2022-09-16T22:09:40;99226.69;;;15.58;100.00
35045;BME280;21231;48.394;34.964;2022-09-16T22:12:27;99234.44;;;15.56;100.00
35045;BME280;21231;48.394;34.964;2022-09-16T22:15:13;99240.34;;;15.49;100.00
35045;BME280;21231;48.394;34.964;2022-09-16T22:17:59;99241.00;;;15.39;100.00
35045;BME280;21231;48.394;34.964;2022-09-16T22:20:47;99239.91;;;15.29;100.00
35045;BME280;21231;48.394;34.964;2022-09-16T22:23:34;99244.16;;;15.25;100.00
35045;BME280;21231;48.394;34.964;2022-09-16T22:26:22;99245.03;;;15.27;100.00
35045;BME280;21231;48.394;34.964;2022-09-16T22:29:09;99235.41;;;15.21;100.00
35045;BME280;21231;48.394;34.964;2022-09-16T22:31:56;99243.94;;;15.16;100.00
35045;BME280;21231;48.394;34.964;2022-09-16T22:34:42;99244.56;;;15.05;100.00
35045;BME280;21231;48.394;34.964;2022-09-16T22:37:27;99247.59;;;14.87;100.00
35045;BME280;21231;48.394;34.964;2022-09-16T22:40:14;99247.53;;;14.84;100.00
35045;BME280;21231;48.394;34.964;2022-09-16T22:43:00;99256.00;;;14.77;100.00
35045;BME280;21231;48.394;34.964;2022-09-16T22:45:46;99251.00;;;14.83;100.00
35045;BME280;21231;48.394;34.964;2022-09-16T22:48:33;99256.44;;;14.94;100.00
35045;BME280;21231;48.394;34.964;2022-09-16T22:51:19;99254.09;;;15.05;100.00
35045;BME280;21231;48.394;34.964;2022-09-16T22:54:06;99250.63;;;15.06;100.00
35045;BME280;21231;48.394;34.964;2022-09-16T22:56:52;99250.75;;;15.12;100.00
35045;BME280;21231;48.394;34.964;2022-09-16T22:59:39;99246.53;;;15.17;100.00
35045;BME280;21231;48.394;34.964;2022-09-16T23:02:25;99248.91;;;15.05;100.00
35045;BME280;21231;48.394;34.964;2022-09-16T23:05:10;99242.66;;;14.97;100.00
35045;BME280;21231;48.394;34.964;2022-09-16T23:07:56;99241.81;;;14.98;100.00
35045;BME280;21231;48.394;34.964;2022-09-16T23:10:42;99238.28;;;14.94;100.00